Terminal Aerodrome Forecast
Issued by NWS

Home | Current Version | Previous Version | Text Only | Print | Product List | Glossary On
Versions: 1 2 3 4 5 6 7 8 9 10 11 12 13 14 15 16 17 18 19 20 21 22 23 24 25 26
000
FTUS42 KTAE 031200 AAA
TAFVLD
TAF AMD
KVLD 031214Z 0312/0412 00000KT 3SM BR BKN002
      TEMPO 0312/0315 1/4SM FG VV002
     FM031500 13006KT 4SM BR OVC015
     FM032100 19009KT P6SM SCT025 BKN050
     FM040300 18005KT 4SM BR OVC025=

USA.gov is the U.S. government's official web portal to all federal, state and local government web resources and services.